Terminal Aerodrome Forecast
Issued by NWS

Home | Current Version | Previous Version | Text Only | Print | Product List | Glossary On
Versions: 1 2 3 4 5 6 7 8 9 10 11 12 13 14 15 16 17
000
FTUS43 KMQT 191125
TAFCMX
TAF
KCMX 191125Z 1912/2012 10007KT P6SM BKN040
     FM191500 11007KT P6SM SCT060
     FM192100 10010KT P6SM FEW150
     FM201000 12010KT P6SM SCT200 WS010/18035KT=

USA.gov is the U.S. government's official web portal to all federal, state and local government web resources and services.